sensor_id;sensor_type;location;lat;lon;timestamp;P1;durP1;ratioP1;P2;durP2;ratioP2
14060;SDS011;7105;43.616;1.434;2023-04-29T00:00:30;7.17;;;4.30;;
14060;SDS011;7105;43.616;1.434;2023-04-29T00:02:55;5.43;;;4.53;;
14060;SDS011;7105;43.616;1.434;2023-04-29T00:05:21;7.40;;;4.50;;
14060;SDS011;7105;43.616;1.434;2023-04-29T00:07:47;6.77;;;4.77;;
14060;SDS011;7105;43.616;1.434;2023-04-29T00:10:12;9.43;;;4.50;;
14060;SDS011;7105;43.616;1.434;2023-04-29T00:12:39;6.83;;;4.60;;
14060;SDS011;7105;43.616;1.434;2023-04-29T00:15:06;5.97;;;4.33;;
14060;SDS011;7105;43.616;1.434;2023-04-29T00:17:33;8.53;;;4.80;;
14060;SDS011;7105;43.616;1.434;2023-04-29T00:19:58;6.40;;;4.27;;
14060;SDS011;7105;43.616;1.434;2023-04-29T00:22:24;7.10;;;4.53;;
14060;SDS011;7105;43.616;1.434;2023-04-29T00:24:50;6.77;;;4.10;;
14060;SDS011;7105;43.616;1.434;2023-04-29T00:27:17;8.40;;;4.80;;
14060;SDS011;7105;43.616;1.434;2023-04-29T00:29:42;5.30;;;4.80;;
14060;SDS011;7105;43.616;1.434;2023-04-29T00:32:08;7.07;;;5.10;;
14060;SDS011;7105;43.616;1.434;2023-04-29T00:34:34;9.23;;;5.10;;
14060;SDS011;7105;43.616;1.434;2023-04-29T00:36:59;8.20;;;4.60;;
14060;SDS011;7105;43.616;1.434;2023-04-29T00:39:25;8.30;;;4.97;;
14060;SDS011;7105;43.616;1.434;2023-04-29T00:41:51;9.80;;;5.30;;
14060;SDS011;7105;43.616;1.434;2023-04-29T00:44:17;6.07;;;4.80;;
14060;SDS011;7105;43.616;1.434;2023-04-29T00:46:43;9.00;;;5.63;;
14060;SDS011;7105;43.616;1.434;2023-04-29T00:49:09;7.90;;;5.23;;
14060;SDS011;7105;43.616;1.434;2023-04-29T00:51:37;6.40;;;5.60;;
14060;SDS011;7105;43.616;1.434;2023-04-29T00:54:06;7.93;;;5.30;;
14060;SDS011;7105;43.616;1.434;2023-04-29T00:56:33;8.43;;;5.20;;
14060;SDS011;7105;43.616;1.434;2023-04-29T00:59:00;9.93;;;5.07;;
14060;SDS011;7105;43.616;1.434;2023-04-29T01:01:28;7.13;;;5.77;;
14060;SDS011;7105;43.616;1.434;2023-04-29T01:03:55;8.37;;;5.47;;
14060;SDS011;7105;43.616;1.434;2023-04-29T01:07:26;7.37;;;5.77;;
14060;SDS011;7105;43.616;1.434;2023-04-29T01:09:22;5.87;;;5.27;;
14060;SDS011;7105;43.616;1.434;2023-04-29T01:12:14;7.83;;;5.60;;
14060;SDS011;7105;43.616;1.434;2023-04-29T01:14:47;7.30;;;5.23;;
14060;SDS011;7105;43.616;1.434;2023-04-29T01:17:18;8.63;;;5.33;;
14060;SDS011;7105;43.616;1.434;2023-04-29T01:19:51;9.70;;;5.53;;
14060;SDS011;7105;43.616;1.434;2023-04-29T01:22:20;6.67;;;5.47;;
14060;SDS011;7105;43.616;1.434;2023-04-29T01:24:46;7.10;;;5.43;;
14060;SDS011;7105;43.616;1.434;2023-04-29T01:27:32;9.73;;;5.37;;
14060;SDS011;7105;43.616;1.434;2023-04-29T01:30:21;7.17;;;5.77;;
14060;SDS011;7105;43.616;1.434;2023-04-29T01:38:29;8.23;;;5.50;;
14060;SDS011;7105;43.616;1.434;2023-04-29T01:41:09;8.50;;;5.53;;
14060;SDS011;7105;43.616;1.434;2023-04-29T01:43:50;7.30;;;6.03;;
14060;SDS011;7105;43.616;1.434;2023-04-29T01:46:17;6.10;;;5.43;;
14060;SDS011;7105;43.616;1.434;2023-04-29T01:48:43;9.10;;;5.87;;
14060;SDS011;7105;43.616;1.434;2023-04-29T01:51:09;6.27;;;5.13;;
14060;SDS011;7105;43.616;1.434;2023-04-29T01:53:35;8.73;;;5.70;;
14060;SDS011;7105;43.616;1.434;2023-04-29T01:56:01;8.53;;;5.77;;
14060;SDS011;7105;43.616;1.434;2023-04-29T01:58:27;10.37;;;6.00;;
14060;SDS011;7105;43.616;1.434;2023-04-29T02:00:53;9.43;;;5.67;;
14060;SDS011;7105;43.616;1.434;2023-04-29T02:03:19;8.90;;;5.80;;
14060;SDS011;7105;43.616;1.434;2023-04-29T02:05:45;8.00;;;5.60;;
14060;SDS011;7105;43.616;1.434;2023-04-29T02:08:11;6.60;;;4.73;;
14060;SDS011;7105;43.616;1.434;2023-04-29T02:10:37;7.23;;;5.60;;
14060;SDS011;7105;43.616;1.434;2023-04-29T02:13:02;7.97;;;5.10;;
14060;SDS011;7105;43.616;1.434;2023-04-29T02:15:28;9.13;;;5.67;;
14060;SDS011;7105;43.616;1.434;2023-04-29T02:17:54;6.30;;;5.40;;
14060;SDS011;7105;43.616;1.434;2023-04-29T02:20:20;9.27;;;5.87;;
14060;SDS011;7105;43.616;1.434;2023-04-29T02:22:45;10.67;;;5.20;;
14060;SDS011;7105;43.616;1.434;2023-04-29T02:25:11;10.17;;;6.23;;
14060;SDS011;7105;43.616;1.434;2023-04-29T02:27:37;6.43;;;5.10;;
14060;SDS011;7105;43.616;1.434;2023-04-29T02:30:02;6.43;;;5.33;;
14060;SDS011;7105;43.616;1.434;2023-04-29T02:32:29;8.97;;;5.87;;
14060;SDS011;7105;43.616;1.434;2023-04-29T02:34:55;9.53;;;6.20;;
14060;SDS011;7105;43.616;1.434;2023-04-29T02:37:21;9.07;;;6.50;;
14060;SDS011;7105;43.616;1.434;2023-04-29T02:39:47;9.93;;;6.33;;
14060;SDS011;7105;43.616;1.434;2023-04-29T02:42:12;8.40;;;6.83;;
14060;SDS011;7105;43.616;1.434;2023-04-29T02:44:38;11.57;;;6.00;;
14060;SDS011;7105;43.616;1.434;2023-04-29T02:47:05;12.23;;;6.47;;
14060;SDS011;7105;43.616;1.434;2023-04-29T02:49:31;9.47;;;6.70;;
14060;SDS011;7105;43.616;1.434;2023-04-29T02:51:56;8.47;;;6.67;;
14060;SDS011;7105;43.616;1.434;2023-04-29T02:54:22;12.40;;;5.90;;
14060;SDS011;7105;43.616;1.434;2023-04-29T02:56:48;10.13;;;6.13;;
14060;SDS011;7105;43.616;1.434;2023-04-29T02:59:14;11.13;;;6.30;;
14060;SDS011;7105;43.616;1.434;2023-04-29T03:01:40;9.90;;;5.97;;
14060;SDS011;7105;43.616;1.434;2023-04-29T03:04:06;10.30;;;6.03;;
14060;SDS011;7105;43.616;1.434;2023-04-29T03:06:31;8.80;;;6.87;;
14060;SDS011;7105;43.616;1.434;2023-04-29T03:08:57;10.70;;;6.47;;
14060;SDS011;7105;43.616;1.434;2023-04-29T03:11:23;11.17;;;6.63;;
14060;SDS011;7105;43.616;1.434;2023-04-29T03:13:49;11.77;;;6.50;;
14060;SDS011;7105;43.616;1.434;2023-04-29T03:16:15;11.90;;;6.60;;
14060;SDS011;7105;43.616;1.434;2023-04-29T03:18:41;11.10;;;6.33;;
14060;SDS011;7105;43.616;1.434;2023-04-29T03:21:07;12.07;;;7.10;;
14060;SDS011;7105;43.616;1.434;2023-04-29T03:23:33;9.47;;;6.47;;
14060;SDS011;7105;43.616;1.434;2023-04-29T03:25:58;11.20;;;6.53;;
14060;SDS011;7105;43.616;1.434;2023-04-29T03:28:25;15.00;;;6.73;;
14060;SDS011;7105;43.616;1.434;2023-04-29T03:30:51;16.23;;;7.20;;
14060;SDS011;7105;43.616;1.434;2023-04-29T03:33:17;11.07;;;7.30;;
14060;SDS011;7105;43.616;1.434;2023-04-29T03:35:42;13.30;;;7.30;;
14060;SDS011;7105;43.616;1.434;2023-04-29T03:38:09;14.50;;;7.80;;
14060;SDS011;7105;43.616;1.434;2023-04-29T03:40:35;13.73;;;7.33;;
14060;SDS011;7105;43.616;1.434;2023-04-29T03:43:01;14.30;;;7.97;;
14060;SDS011;7105;43.616;1.434;2023-04-29T03:45:27;12.07;;;7.57;;
14060;SDS011;7105;43.616;1.434;2023-04-29T03:47:53;14.77;;;7.90;;
14060;SDS011;7105;43.616;1.434;2023-04-29T03:50:19;12.33;;;7.47;;
14060;SDS011;7105;43.616;1.434;2023-04-29T03:52:45;14.77;;;8.43;;
14060;SDS011;7105;43.616;1.434;2023-04-29T03:55:11;13.97;;;8.20;;
14060;SDS011;7105;43.616;1.434;2023-04-29T03:57:37;23.00;;;9.07;;
14060;SDS011;7105;43.616;1.434;2023-04-29T04:00:03;12.43;;;7.70;;
14060;SDS011;7105;43.616;1.434;2023-04-29T04:02:29;14.60;;;7.97;;
14060;SDS011;7105;43.616;1.434;2023-04-29T04:04:55;16.53;;;9.50;;
14060;SDS011;7105;43.616;1.434;2023-04-29T04:07:22;20.40;;;8.57;;
14060;SDS011;7105;43.616;1.434;2023-04-29T04:09:48;15.13;;;8.57;;
14060;SDS011;7105;43.616;1.434;2023-04-29T04:12:14;19.37;;;9.33;;
14060;SDS011;7105;43.616;1.434;2023-04-29T04:14:40;14.03;;;9.13;;
14060;SDS011;7105;43.616;1.434;2023-04-29T04:17:06;15.63;;;9.47;;
14060;SDS011;7105;43.616;1.434;2023-04-29T04:19:32;15.23;;;9.67;;
14060;SDS011;7105;43.616;1.434;2023-04-29T04:21:57;16.13;;;10.17;;
14060;SDS011;7105;43.616;1.434;2023-04-29T04:24:23;16.53;;;10.10;;
14060;SDS011;7105;43.616;1.434;2023-04-29T04:26:49;17.70;;;10.27;;
14060;SDS011;7105;43.616;1.434;2023-04-29T04:29:14;15.83;;;9.67;;
14060;SDS011;7105;43.616;1.434;2023-04-29T04:31:40;15.60;;;9.87;;
14060;SDS011;7105;43.616;1.434;2023-04-29T04:34:06;19.03;;;10.97;;
14060;SDS011;7105;43.616;1.434;2023-04-29T04:36:32;18.33;;;10.60;;
14060;SDS011;7105;43.616;1.434;2023-04-29T04:38:57;20.40;;;11.43;;
14060;SDS011;7105;43.616;1.434;2023-04-29T04:41:23;12.73;;;9.77;;
14060;SDS011;7105;43.616;1.434;2023-04-29T04:43:48;14.77;;;10.37;;
14060;SDS011;7105;43.616;1.434;2023-04-29T04:46:15;19.17;;;10.57;;
14060;SDS011;7105;43.616;1.434;2023-04-29T04:48:41;16.17;;;10.60;;
14060;SDS011;7105;43.616;1.434;2023-04-29T04:51:10;17.83;;;11.83;;
14060;SDS011;7105;43.616;1.434;2023-04-29T04:53:37;20.07;;;12.00;;
14060;SDS011;7105;43.616;1.434;2023-04-29T04:56:03;15.67;;;11.40;;
14060;SDS011;7105;43.616;1.434;2023-04-29T04:58:30;16.60;;;11.23;;
14060;SDS011;7105;43.616;1.434;2023-04-29T05:00:56;18.30;;;12.40;;
14060;SDS011;7105;43.616;1.434;2023-04-29T05:03:25;17.83;;;12.17;;
14060;SDS011;7105;43.616;1.434;2023-04-29T05:05:57;21.13;;;11.50;;
14060;SDS011;7105;43.616;1.434;2023-04-29T05:08:24;18.83;;;11.30;;
14060;SDS011;7105;43.616;1.434;2023-04-29T05:10:50;16.83;;;12.20;;
14060;SDS011;7105;43.616;1.434;2023-04-29T05:13:16;17.97;;;11.87;;
14060;SDS011;7105;43.616;1.434;2023-04-29T05:15:42;19.37;;;12.27;;
14060;SDS011;7105;43.616;1.434;2023-04-29T05:18:08;19.60;;;11.77;;
14060;SDS011;7105;43.616;1.434;2023-04-29T05:20:35;19.03;;;12.07;;
14060;SDS011;7105;43.616;1.434;2023-04-29T05:23:00;17.70;;;12.13;;
14060;SDS011;7105;43.616;1.434;2023-04-29T05:25:27;18.53;;;12.50;;
14060;SDS011;7105;43.616;1.434;2023-04-29T05:27:52;15.87;;;11.67;;
14060;SDS011;7105;43.616;1.434;2023-04-29T05:30:18;14.27;;;11.27;;
14060;SDS011;7105;43.616;1.434;2023-04-29T05:32:45;15.23;;;12.30;;
14060;SDS011;7105;43.616;1.434;2023-04-29T05:35:10;12.53;;;11.23;;
14060;SDS011;7105;43.616;1.434;2023-04-29T05:37:36;14.07;;;11.60;;
14060;SDS011;7105;43.616;1.434;2023-04-29T05:40:02;17.33;;;11.67;;
14060;SDS011;7105;43.616;1.434;2023-04-29T05:42:28;19.67;;;11.90;;
14060;SDS011;7105;43.616;1.434;2023-04-29T05:44:54;15.40;;;12.20;;
14060;SDS011;7105;43.616;1.434;2023-04-29T05:47:20;16.70;;;12.10;;
14060;SDS011;7105;43.616;1.434;2023-04-29T05:49:46;14.07;;;11.83;;
14060;SDS011;7105;43.616;1.434;2023-04-29T05:52:12;19.37;;;12.43;;
14060;SDS011;7105;43.616;1.434;2023-04-29T05:54:38;15.90;;;11.80;;
14060;SDS011;7105;43.616;1.434;2023-04-29T05:57:03;17.23;;;12.57;;
14060;SDS011;7105;43.616;1.434;2023-04-29T05:59:29;14.70;;;11.80;;
14060;SDS011;7105;43.616;1.434;2023-04-29T06:01:56;14.40;;;12.00;;
14060;SDS011;7105;43.616;1.434;2023-04-29T06:04:25;16.87;;;12.50;;
14060;SDS011;7105;43.616;1.434;2023-04-29T06:06:54;14.37;;;12.27;;
14060;SDS011;7105;43.616;1.434;2023-04-29T06:09:21;15.47;;;12.37;;
14060;SDS011;7105;43.616;1.434;2023-04-29T06:11:50;14.97;;;12.37;;
14060;SDS011;7105;43.616;1.434;2023-04-29T06:14:16;16.00;;;12.30;;
14060;SDS011;7105;43.616;1.434;2023-04-29T06:16:42;15.30;;;11.73;;
14060;SDS011;7105;43.616;1.434;2023-04-29T06:19:08;18.17;;;12.53;;
14060;SDS011;7105;43.616;1.434;2023-04-29T06:21:33;16.37;;;12.20;;
14060;SDS011;7105;43.616;1.434;2023-04-29T06:24:08;13.67;;;11.87;;
14060;SDS011;7105;43.616;1.434;2023-04-29T06:26:34;18.97;;;13.33;;
14060;SDS011;7105;43.616;1.434;2023-04-29T06:29:00;18.53;;;12.97;;
14060;SDS011;7105;43.616;1.434;2023-04-29T06:31:26;16.27;;;12.30;;
14060;SDS011;7105;43.616;1.434;2023-04-29T06:33:52;17.88;;;12.75;;
14060;SDS011;7105;43.616;1.434;2023-04-29T06:36:18;14.80;;;11.83;;
14060;SDS011;7105;43.616;1.434;2023-04-29T06:38:43;17.80;;;12.57;;
14060;SDS011;7105;43.616;1.434;2023-04-29T06:41:09;17.90;;;12.73;;
14060;SDS011;7105;43.616;1.434;2023-04-29T06:43:35;16.50;;;12.73;;
14060;SDS011;7105;43.616;1.434;2023-04-29T06:46:01;20.43;;;13.37;;
14060;SDS011;7105;43.616;1.434;2023-04-29T06:48:26;16.60;;;12.27;;
14060;SDS011;7105;43.616;1.434;2023-04-29T06:50:55;19.30;;;13.70;;
14060;SDS011;7105;43.616;1.434;2023-04-29T06:53:22;19.13;;;13.47;;
14060;SDS011;7105;43.616;1.434;2023-04-29T06:55:48;20.37;;;13.77;;
14060;SDS011;7105;43.616;1.434;2023-04-29T06:58:15;18.27;;;13.53;;
14060;SDS011;7105;43.616;1.434;2023-04-29T07:00:47;17.00;;;13.30;;
14060;SDS011;7105;43.616;1.434;2023-04-29T07:03:15;17.30;;;13.87;;
14060;SDS011;7105;43.616;1.434;2023-04-29T07:05:42;20.33;;;13.70;;
14060;SDS011;7105;43.616;1.434;2023-04-29T07:08:10;18.77;;;13.50;;
14060;SDS011;7105;43.616;1.434;2023-04-29T07:10:37;19.57;;;14.13;;
14060;SDS011;7105;43.616;1.434;2023-04-29T07:13:03;19.60;;;13.93;;
14060;SDS011;7105;43.616;1.434;2023-04-29T07:15:29;20.97;;;13.60;;
14060;SDS011;7105;43.616;1.434;2023-04-29T07:17:58;19.33;;;13.17;;
14060;SDS011;7105;43.616;1.434;2023-04-29T07:20:24;20.77;;;14.53;;
14060;SDS011;7105;43.616;1.434;2023-04-29T07:22:51;18.00;;;14.07;;
14060;SDS011;7105;43.616;1.434;2023-04-29T07:25:17;19.23;;;14.17;;
14060;SDS011;7105;43.616;1.434;2023-04-29T07:27:43;21.90;;;14.67;;
14060;SDS011;7105;43.616;1.434;2023-04-29T07:30:08;24.07;;;18.40;;
14060;SDS011;7105;43.616;1.434;2023-04-29T07:32:34;140.90;;;126.93;;
14060;SDS011;7105;43.616;1.434;2023-04-29T07:35:02;135.57;;;122.00;;
14060;SDS011;7105;43.616;1.434;2023-04-29T07:37:27;82.87;;;72.37;;
14060;SDS011;7105;43.616;1.434;2023-04-29T07:39:53;58.67;;;52.37;;
14060;SDS011;7105;43.616;1.434;2023-04-29T07:42:19;44.53;;;38.20;;
14060;SDS011;7105;43.616;1.434;2023-04-29T07:44:44;35.53;;;27.30;;
14060;SDS011;7105;43.616;1.434;2023-04-29T07:47:10;27.10;;;21.50;;
14060;SDS011;7105;43.616;1.434;2023-04-29T07:49:36;18.60;;;14.93;;
14060;SDS011;7105;43.616;1.434;2023-04-29T07:52:05;19.73;;;15.07;;
14060;SDS011;7105;43.616;1.434;2023-04-29T07:54:33;19.43;;;14.70;;
14060;SDS011;7105;43.616;1.434;2023-04-29T07:57:00;17.25;;;12.85;;
14060;SDS011;7105;43.616;1.434;2023-04-29T07:59:27;17.67;;;12.97;;
14060;SDS011;7105;43.616;1.434;2023-04-29T08:01:56;20.33;;;13.20;;
14060;SDS011;7105;43.616;1.434;2023-04-29T08:04:22;19.80;;;12.95;;
14060;SDS011;7105;43.616;1.434;2023-04-29T08:06:48;16.90;;;12.32;;
14060;SDS011;7105;43.616;1.434;2023-04-29T08:09:14;17.07;;;12.53;;
14060;SDS011;7105;43.616;1.434;2023-04-29T08:11:41;14.70;;;11.73;;
14060;SDS011;7105;43.616;1.434;2023-04-29T08:14:07;17.93;;;12.20;;
14060;SDS011;7105;43.616;1.434;2023-04-29T08:16:33;14.45;;;10.82;;
14060;SDS011;7105;43.616;1.434;2023-04-29T08:18:59;13.63;;;10.63;;
14060;SDS011;7105;43.616;1.434;2023-04-29T08:21:24;13.97;;;10.17;;
14060;SDS011;7105;43.616;1.434;2023-04-29T08:23:51;14.67;;;11.20;;
14060;SDS011;7105;43.616;1.434;2023-04-29T08:26:17;13.67;;;10.80;;
14060;SDS011;7105;43.616;1.434;2023-04-29T08:28:43;13.90;;;10.97;;
14060;SDS011;7105;43.616;1.434;2023-04-29T08:31:15;15.27;;;10.90;;
14060;SDS011;7105;43.616;1.434;2023-04-29T08:33:44;15.73;;;10.50;;
14060;SDS011;7105;43.616;1.434;2023-04-29T08:36:10;12.52;;;9.52;;
14060;SDS011;7105;43.616;1.434;2023-04-29T08:38:36;14.43;;;10.47;;
14060;SDS011;7105;43.616;1.434;2023-04-29T08:41:02;15.02;;;10.70;;
14060;SDS011;7105;43.616;1.434;2023-04-29T08:43:27;12.83;;;10.23;;
14060;SDS011;7105;43.616;1.434;2023-04-29T08:45:53;13.57;;;10.63;;
14060;SDS011;7105;43.616;1.434;2023-04-29T08:48:21;13.10;;;10.20;;
14060;SDS011;7105;43.616;1.434;2023-04-29T08:50:47;14.82;;;10.40;;
14060;SDS011;7105;43.616;1.434;2023-04-29T08:53:13;12.50;;;10.03;;
14060;SDS011;7105;43.616;1.434;2023-04-29T08:55:42;13.77;;;9.80;;
14060;SDS011;7105;43.616;1.434;2023-04-29T08:58:09;13.47;;;9.77;;
14060;SDS011;7105;43.616;1.434;2023-04-29T09:00:36;13.37;;;10.07;;
14060;SDS011;7105;43.616;1.434;2023-04-29T09:03:10;12.17;;;9.47;;
14060;SDS011;7105;43.616;1.434;2023-04-29T09:05:40;12.05;;;9.40;;
14060;SDS011;7105;43.616;1.434;2023-04-29T09:08:09;10.23;;;8.65;;
14060;SDS011;7105;43.616;1.434;2023-04-29T09:10:37;11.07;;;8.35;;
14060;SDS011;7105;43.616;1.434;2023-04-29T09:13:03;11.15;;;8.50;;
14060;SDS011;7105;43.616;1.434;2023-04-29T09:15:34;13.40;;;8.68;;
14060;SDS011;7105;43.616;1.434;2023-04-29T09:18:04;10.43;;;7.95;;
14060;SDS011;7105;43.616;1.434;2023-04-29T09:20:30;8.98;;;7.68;;
14060;SDS011;7105;43.616;1.434;2023-04-29T09:22:57;9.73;;;8.00;;
14060;SDS011;7105;43.616;1.434;2023-04-29T09:25:28;9.57;;;7.55;;
14060;SDS011;7105;43.616;1.434;2023-04-29T09:27:54;10.02;;;8.18;;
14060;SDS011;7105;43.616;1.434;2023-04-29T09:30:20;9.80;;;7.25;;
14060;SDS011;7105;43.616;1.434;2023-04-29T09:33:06;9.57;;;7.53;;
14060;SDS011;7105;43.616;1.434;2023-04-29T09:35:32;8.70;;;7.80;;
14060;SDS011;7105;43.616;1.434;2023-04-29T09:38:08;11.32;;;8.20;;
14060;SDS011;7105;43.616;1.434;2023-04-29T09:40:36;9.70;;;8.10;;
14060;SDS011;7105;43.616;1.434;2023-04-29T09:43:02;8.88;;;7.88;;
14060;SDS011;7105;43.616;1.434;2023-04-29T09:45:35;10.85;;;8.55;;
14060;SDS011;7105;43.616;1.434;2023-04-29T09:48:05;11.52;;;8.18;;
14060;SDS011;7105;43.616;1.434;2023-04-29T09:50:33;9.18;;;7.00;;
14060;SDS011;7105;43.616;1.434;2023-04-29T09:53:03;8.05;;;7.00;;
14060;SDS011;7105;43.616;1.434;2023-04-29T09:55:30;9.43;;;7.53;;
14060;SDS011;7105;43.616;1.434;2023-04-29T09:57:56;7.97;;;7.13;;
14060;SDS011;7105;43.616;1.434;2023-04-29T10:00:22;7.10;;;6.40;;
14060;SDS011;7105;43.616;1.434;2023-04-29T10:02:50;9.48;;;6.60;;
14060;SDS011;7105;43.616;1.434;2023-04-29T10:05:18;6.82;;;6.13;;
14060;SDS011;7105;43.616;1.434;2023-04-29T10:07:45;8.30;;;6.30;;
14060;SDS011;7105;43.616;1.434;2023-04-29T10:10:15;6.95;;;5.72;;
14060;SDS011;7105;43.616;1.434;2023-04-29T10:12:42;6.57;;;5.93;;
14060;SDS011;7105;43.616;1.434;2023-04-29T10:15:14;6.60;;;5.95;;
14060;SDS011;7105;43.616;1.434;2023-04-29T10:18:18;6.68;;;5.97;;
14060;SDS011;7105;43.616;1.434;2023-04-29T10:20:45;9.10;;;6.40;;
14060;SDS011;7105;43.616;1.434;2023-04-29T10:23:12;7.38;;;6.00;;
14060;SDS011;7105;43.616;1.434;2023-04-29T10:25:40;7.95;;;6.60;;
14060;SDS011;7105;43.616;1.434;2023-04-29T10:28:08;7.05;;;6.43;;
14060;SDS011;7105;43.616;1.434;2023-04-29T10:30:41;6.70;;;5.80;;
14060;SDS011;7105;43.616;1.434;2023-04-29T10:33:09;6.90;;;6.00;;
14060;SDS011;7105;43.616;1.434;2023-04-29T10:35:36;6.90;;;5.90;;
14060;SDS011;7105;43.616;1.434;2023-04-29T10:40:54;7.60;;;6.40;;
14060;SDS011;7105;43.616;1.434;2023-04-29T10:43:25;6.78;;;5.82;;
14060;SDS011;7105;43.616;1.434;2023-04-29T10:48:47;6.90;;;5.88;;
14060;SDS011;7105;43.616;1.434;2023-04-29T10:54:08;7.40;;;6.20;;
14060;SDS011;7105;43.616;1.434;2023-04-29T10:59:10;8.73;;;6.68;;
14060;SDS011;7105;43.616;1.434;2023-04-29T11:01:42;8.05;;;6.47;;
14060;SDS011;7105;43.616;1.434;2023-04-29T11:04:15;7.10;;;6.40;;
14060;SDS011;7105;43.616;1.434;2023-04-29T11:06:52;8.70;;;6.43;;
14060;SDS011;7105;43.616;1.434;2023-04-29T11:14:23;6.63;;;5.47;;
14060;SDS011;7105;43.616;1.434;2023-04-29T11:17:13;7.60;;;5.70;;
14060;SDS011;7105;43.616;1.434;2023-04-29T11:19:43;6.43;;;5.53;;
14060;SDS011;7105;43.616;1.434;2023-04-29T11:22:26;5.70;;;5.18;;
14060;SDS011;7105;43.616;1.434;2023-04-29T11:24:56;6.88;;;5.68;;
14060;SDS011;7105;43.616;1.434;2023-04-29T11:27:30;7.07;;;5.80;;
14060;SDS011;7105;43.616;1.434;2023-04-29T11:30:04;7.72;;;6.43;;
14060;SDS011;7105;43.616;1.434;2023-04-29T11:32:35;10.48;;;5.93;;
14060;SDS011;7105;43.616;1.434;2023-04-29T11:35:06;6.60;;;5.60;;
14060;SDS011;7105;43.616;1.434;2023-04-29T11:37:39;6.65;;;5.78;;
14060;SDS011;7105;43.616;1.434;2023-04-29T11:40:06;8.18;;;6.28;;
14060;SDS011;7105;43.616;1.434;2023-04-29T11:42:33;6.80;;;5.97;;
14060;SDS011;7105;43.616;1.434;2023-04-29T11:45:00;6.50;;;5.75;;
14060;SDS011;7105;43.616;1.434;2023-04-29T11:47:29;9.35;;;6.85;;
14060;SDS011;7105;43.616;1.434;2023-04-29T11:50:05;7.28;;;6.10;;
14060;SDS011;7105;43.616;1.434;2023-04-29T11:52:33;7.68;;;6.50;;
14060;SDS011;7105;43.616;1.434;2023-04-29T11:55:01;6.93;;;5.90;;
14060;SDS011;7105;43.616;1.434;2023-04-29T11:57:27;11.65;;;6.72;;
14060;SDS011;7105;43.616;1.434;2023-04-29T11:59:53;8.68;;;6.60;;
14060;SDS011;7105;43.616;1.434;2023-04-29T12:02:21;8.00;;;6.80;;
14060;SDS011;7105;43.616;1.434;2023-04-29T12:04:47;8.45;;;6.32;;
14060;SDS011;7105;43.616;1.434;2023-04-29T12:07:16;8.80;;;6.88;;
14060;SDS011;7105;43.616;1.434;2023-04-29T12:09:42;10.93;;;7.13;;
14060;SDS011;7105;43.616;1.434;2023-04-29T12:12:09;8.48;;;7.22;;
14060;SDS011;7105;43.616;1.434;2023-04-29T12:14:36;8.10;;;6.93;;
14060;SDS011;7105;43.616;1.434;2023-04-29T12:17:02;10.05;;;7.95;;
14060;SDS011;7105;43.616;1.434;2023-04-29T12:19:29;10.13;;;7.43;;
14060;SDS011;7105;43.616;1.434;2023-04-29T12:21:57;10.20;;;7.22;;
14060;SDS011;7105;43.616;1.434;2023-04-29T12:24:23;10.15;;;7.38;;
14060;SDS011;7105;43.616;1.434;2023-04-29T12:26:49;9.18;;;6.93;;
14060;SDS011;7105;43.616;1.434;2023-04-29T12:29:16;8.02;;;6.38;;
14060;SDS011;7105;43.616;1.434;2023-04-29T12:31:47;11.00;;;7.10;;
14060;SDS011;7105;43.616;1.434;2023-04-29T12:34:13;7.25;;;6.45;;
14060;SDS011;7105;43.616;1.434;2023-04-29T12:36:42;8.65;;;7.03;;
14060;SDS011;7105;43.616;1.434;2023-04-29T12:39:09;7.90;;;6.53;;
14060;SDS011;7105;43.616;1.434;2023-04-29T12:41:38;8.07;;;6.85;;
14060;SDS011;7105;43.616;1.434;2023-04-29T12:44:05;8.20;;;6.90;;
14060;SDS011;7105;43.616;1.434;2023-04-29T12:46:35;7.97;;;7.18;;
14060;SDS011;7105;43.616;1.434;2023-04-29T12:49:02;8.27;;;7.00;;
14060;SDS011;7105;43.616;1.434;2023-04-29T12:51:29;8.77;;;6.47;;
14060;SDS011;7105;43.616;1.434;2023-04-29T12:54:00;8.23;;;6.50;;
14060;SDS011;7105;43.616;1.434;2023-04-29T12:56:27;8.77;;;7.20;;
14060;SDS011;7105;43.616;1.434;2023-04-29T12:59:03;9.73;;;7.20;;
14060;SDS011;7105;43.616;1.434;2023-04-29T13:01:31;9.68;;;6.63;;
14060;SDS011;7105;43.616;1.434;2023-04-29T13:03:57;9.27;;;7.13;;
14060;SDS011;7105;43.616;1.434;2023-04-29T13:06:22;8.18;;;7.22;;
14060;SDS011;7105;43.616;1.434;2023-04-29T13:08:48;10.05;;;7.00;;
14060;SDS011;7105;43.616;1.434;2023-04-29T13:11:15;10.10;;;6.90;;
14060;SDS011;7105;43.616;1.434;2023-04-29T13:13:41;10.07;;;7.18;;
14060;SDS011;7105;43.616;1.434;2023-04-29T13:16:07;9.27;;;6.32;;
14060;SDS011;7105;43.616;1.434;2023-04-29T13:18:32;8.27;;;6.75;;
14060;SDS011;7105;43.616;1.434;2023-04-29T13:20:58;9.23;;;6.68;;
14060;SDS011;7105;43.616;1.434;2023-04-29T13:23:24;10.60;;;6.82;;
14060;SDS011;7105;43.616;1.434;2023-04-29T13:25:49;8.02;;;6.90;;
14060;SDS011;7105;43.616;1.434;2023-04-29T13:28:15;8.50;;;7.40;;
14060;SDS011;7105;43.616;1.434;2023-04-29T13:30:41;10.30;;;7.10;;
14060;SDS011;7105;43.616;1.434;2023-04-29T13:33:06;8.35;;;7.38;;
14060;SDS011;7105;43.616;1.434;2023-04-29T13:35:33;6.75;;;6.03;;
14060;SDS011;7105;43.616;1.434;2023-04-29T13:38:00;6.30;;;5.70;;
14060;SDS011;7105;43.616;1.434;2023-04-29T13:40:26;7.30;;;6.00;;
14060;SDS011;7105;43.616;1.434;2023-04-29T13:42:52;7.78;;;5.80;;
14060;SDS011;7105;43.616;1.434;2023-04-29T13:45:18;6.65;;;5.70;;
14060;SDS011;7105;43.616;1.434;2023-04-29T13:47:43;6.07;;;5.07;;
14060;SDS011;7105;43.616;1.434;2023-04-29T13:50:09;5.80;;;5.05;;
14060;SDS011;7105;43.616;1.434;2023-04-29T13:52:35;5.47;;;4.80;;
14060;SDS011;7105;43.616;1.434;2023-04-29T13:55:01;5.65;;;5.15;;
14060;SDS011;7105;43.616;1.434;2023-04-29T13:57:26;6.93;;;5.28;;
14060;SDS011;7105;43.616;1.434;2023-04-29T13:59:52;5.95;;;4.72;;
14060;SDS011;7105;43.616;1.434;2023-04-29T14:02:20;4.70;;;4.28;;
14060;SDS011;7105;43.616;1.434;2023-04-29T14:04:45;5.28;;;4.50;;
14060;SDS011;7105;43.616;1.434;2023-04-29T14:07:12;5.13;;;4.30;;
14060;SDS011;7105;43.616;1.434;2023-04-29T14:09:37;5.30;;;4.20;;
14060;SDS011;7105;43.616;1.434;2023-04-29T14:12:04;4.28;;;3.90;;
14060;SDS011;7105;43.616;1.434;2023-04-29T14:14:30;4.75;;;4.18;;
14060;SDS011;7105;43.616;1.434;2023-04-29T14:16:56;5.28;;;4.60;;
14060;SDS011;7105;43.616;1.434;2023-04-29T14:19:22;5.57;;;4.45;;
14060;SDS011;7105;43.616;1.434;2023-04-29T14:21:47;5.15;;;4.20;;
14060;SDS011;7105;43.616;1.434;2023-04-29T14:24:13;5.57;;;4.20;;
14060;SDS011;7105;43.616;1.434;2023-04-29T14:26:39;5.55;;;4.57;;
14060;SDS011;7105;43.616;1.434;2023-04-29T14:29:05;5.65;;;4.60;;
14060;SDS011;7105;43.616;1.434;2023-04-29T14:31:34;5.63;;;4.70;;
14060;SDS011;7105;43.616;1.434;2023-04-29T14:34:03;6.35;;;4.97;;
14060;SDS011;7105;43.616;1.434;2023-04-29T14:36:29;5.50;;;4.97;;
14060;SDS011;7105;43.616;1.434;2023-04-29T14:38:58;5.72;;;4.78;;
14060;SDS011;7105;43.616;1.434;2023-04-29T14:41:25;6.68;;;5.43;;
14060;SDS011;7105;43.616;1.434;2023-04-29T14:43:51;6.00;;;4.82;;
14060;SDS011;7105;43.616;1.434;2023-04-29T14:46:17;5.10;;;4.63;;
14060;SDS011;7105;43.616;1.434;2023-04-29T14:48:42;6.22;;;4.95;;
14060;SDS011;7105;43.616;1.434;2023-04-29T14:51:08;7.03;;;5.20;;
14060;SDS011;7105;43.616;1.434;2023-04-29T14:53:34;4.70;;;4.30;;
14060;SDS011;7105;43.616;1.434;2023-04-29T14:56:00;5.63;;;4.28;;
14060;SDS011;7105;43.616;1.434;2023-04-29T14:58:26;5.15;;;4.60;;
14060;SDS011;7105;43.616;1.434;2023-04-29T15:00:51;4.57;;;4.18;;
14060;SDS011;7105;43.616;1.434;2023-04-29T15:03:17;4.72;;;4.30;;
14060;SDS011;7105;43.616;1.434;2023-04-29T15:05:43;4.90;;;4.50;;
14060;SDS011;7105;43.616;1.434;2023-04-29T15:08:09;5.55;;;4.20;;
14060;SDS011;7105;43.616;1.434;2023-04-29T15:10:35;5.55;;;4.97;;
14060;SDS011;7105;43.616;1.434;2023-04-29T15:13:01;6.22;;;5.63;;